createdAt,value
2023-01-25T00:02:11.063Z,10.40
2023-01-25T00:04:38.328Z,11.57
2023-01-25T00:07:05.522Z,11.50
2023-01-25T00:09:32.821Z,11.25
2023-01-25T00:12:00.048Z,12.18
2023-01-25T00:14:27.323Z,13.02
2023-01-25T00:16:54.640Z,12.48
2023-01-25T00:19:21.934Z,13.07
2023-01-25T00:21:49.141Z,11.50
2023-01-25T00:24:16.451Z,12.95
2023-01-25T00:26:44.156Z,11.10
2023-01-25T00:29:14.642Z,10.63
2023-01-25T00:31:42.232Z,9.90
2023-01-25T00:34:29.398Z,11.13
2023-01-25T00:37:03.671Z,11.48
2023-01-25T00:39:30.946Z,10.40
2023-01-25T00:41:58.084Z,11.00
2023-01-25T00:44:25.243Z,12.10
2023-01-25T00:46:52.422Z,10.68
2023-01-25T00:49:31.673Z,10.77
2023-01-25T00:51:59.205Z,10.75
2023-01-25T00:54:26.451Z,10.50
2023-01-25T00:56:53.929Z,10.68
2023-01-25T00:59:21.233Z,9.85
2023-01-25T01:01:48.391Z,11.18
2023-01-25T01:04:15.704Z,11.13
2023-01-25T01:06:43.175Z,10.80
2023-01-25T01:09:15.333Z,10.73
2023-01-25T01:11:42.524Z,10.98
2023-01-25T01:14:09.759Z,10.88
2023-01-25T01:16:37.177Z,10.85
2023-01-25T01:19:04.840Z,10.65
2023-01-25T01:21:32.001Z,9.52
2023-01-25T01:23:59.199Z,10.43
2023-01-25T01:26:26.471Z,10.13
2023-01-25T01:28:53.642Z,11.75
2023-01-25T01:31:22.386Z,10.73
2023-01-25T01:33:53.307Z,10.98
2023-01-25T01:36:22.473Z,11.18
2023-01-25T01:38:49.684Z,11.63
2023-01-25T01:41:16.858Z,11.73
2023-01-25T01:43:44.493Z,11.32
2023-01-25T01:46:22.581Z,9.68
2023-01-25T01:48:53.192Z,11.05
2023-01-25T01:51:23.509Z,9.98
2023-01-25T01:53:53.553Z,10.55
2023-01-25T01:56:27.548Z,11.15
2023-01-25T01:58:55.434Z,10.40
2023-01-25T02:01:22.795Z,10.52
2023-01-25T02:03:50.431Z,9.68
2023-01-25T02:06:24.220Z,10.20
2023-01-25T02:08:52.899Z,9.95
2023-01-25T02:11:21.127Z,9.70
2023-01-25T02:13:49.724Z,9.90
2023-01-25T02:16:26.765Z,9.95
2023-01-25T02:18:58.586Z,10.13
2023-01-25T02:21:25.877Z,9.75
2023-01-25T02:23:53.128Z,9.85
2023-01-25T02:26:20.493Z,10.10
2023-01-25T02:28:50.127Z,9.40
2023-01-25T02:31:18.200Z,11.25
2023-01-25T02:33:45.492Z,10.13
2023-01-25T02:36:12.709Z,9.52
2023-01-25T02:38:42.094Z,10.50
2023-01-25T02:41:11.884Z,9.35
2023-01-25T02:43:39.090Z,10.05
2023-01-25T02:46:11.378Z,10.68
2023-01-25T02:48:38.556Z,9.95
2023-01-25T02:51:08.146Z,10.27
2023-01-25T02:53:35.403Z,10.15
2023-01-25T02:56:02.789Z,9.70
2023-01-25T02:58:29.952Z,10.30
2023-01-25T03:00:58.108Z,10.07
2023-01-25T03:03:25.434Z,8.98
2023-01-25T03:05:52.633Z,10.55
2023-01-25T03:08:19.871Z,10.20
2023-01-25T03:10:47.139Z,10.05
2023-01-25T03:13:14.527Z,9.88
2023-01-25T03:15:41.762Z,9.93
2023-01-25T03:18:08.896Z,10.00
2023-01-25T03:20:36.033Z,10.38
2023-01-25T03:23:03.287Z,10.88
2023-01-25T03:25:30.490Z,9.55
2023-01-25T03:27:57.690Z,10.75
2023-01-25T03:30:24.975Z,10.32
2023-01-25T03:32:52.956Z,10.80
2023-01-25T03:35:20.209Z,10.88
2023-01-25T03:37:47.387Z,9.43
2023-01-25T03:40:14.633Z,8.50
2023-01-25T03:42:41.846Z,8.75
2023-01-25T03:45:09.546Z,9.13
2023-01-25T03:47:36.781Z,9.48
2023-01-25T03:50:03.969Z,10.00
2023-01-25T03:52:38.176Z,8.95
2023-01-25T03:55:05.827Z,8.70
2023-01-25T03:57:33.049Z,8.85
2023-01-25T04:00:00.277Z,9.13
2023-01-25T04:02:27.520Z,7.97
2023-01-25T04:04:54.752Z,8.85
2023-01-25T04:07:21.917Z,8.88
2023-01-25T04:09:50.174Z,10.48
2023-01-25T04:12:17.391Z,10.65
2023-01-25T04:14:45.145Z,9.20
2023-01-25T04:17:12.968Z,10.20
2023-01-25T04:19:40.130Z,10.98
2023-01-25T04:22:07.316Z,8.73
2023-01-25T04:24:34.478Z,8.73
2023-01-25T04:27:01.691Z,8.38
2023-01-25T04:29:40.532Z,9.85
2023-01-25T04:32:08.689Z,9.52
2023-01-25T04:34:35.948Z,8.63
2023-01-25T04:37:03.096Z,10.48
2023-01-25T04:39:30.247Z,9.50
2023-01-25T04:41:57.373Z,9.98
2023-01-25T04:44:24.857Z,9.77
2023-01-25T04:46:52.005Z,9.70
2023-01-25T04:49:19.262Z,11.05
2023-01-25T04:51:46.411Z,11.18
2023-01-25T04:54:13.639Z,9.50
2023-01-25T04:56:40.777Z,9.88
2023-01-25T04:59:07.934Z,10.25
2023-01-25T05:01:35.187Z,11.90
2023-01-25T05:04:02.503Z,12.32
2023-01-25T05:06:29.703Z,11.93
2023-01-25T05:08:56.835Z,11.13
2023-01-25T05:11:23.989Z,12.05
2023-01-25T05:13:51.987Z,12.02
2023-01-25T05:16:19.205Z,10.77
2023-01-25T05:18:49.326Z,11.32
2023-01-25T05:21:35.341Z,11.98
2023-01-25T05:24:02.547Z,10.32
2023-01-25T05:26:48.747Z,10.63
2023-01-25T05:29:15.881Z,9.85
2023-01-25T05:31:43.004Z,11.13
2023-01-25T05:34:10.456Z,10.43
2023-01-25T05:36:37.664Z,10.27
2023-01-25T05:39:08.670Z,10.73
2023-01-25T05:41:35.849Z,10.43
2023-01-25T05:44:03.137Z,11.05
2023-01-25T05:46:30.634Z,11.65
2023-01-25T05:48:57.882Z,11.48
2023-01-25T05:51:25.067Z,12.20
2023-01-25T05:53:55.477Z,12.82
2023-01-25T05:56:23.232Z,10.77
2023-01-25T05:58:53.946Z,10.45
2023-01-25T06:01:21.253Z,11.55
2023-01-25T06:03:48.860Z,11.48
2023-01-25T06:06:16.113Z,11.68
2023-01-25T06:08:43.476Z,11.73
2023-01-25T06:11:11.586Z,13.02
2023-01-25T06:13:38.853Z,12.38
2023-01-25T06:16:06.448Z,11.52
2023-01-25T06:18:34.208Z,12.27
2023-01-25T06:21:01.926Z,11.38
2023-01-25T06:23:29.523Z,10.93
2023-01-25T06:26:04.135Z,11.73
2023-01-25T06:28:34.879Z,12.02
2023-01-25T06:31:05.901Z,11.38
2023-01-25T06:33:33.284Z,11.02
2023-01-25T06:36:04.363Z,11.07
2023-01-25T06:38:32.009Z,11.70
2023-01-25T06:41:00.362Z,11.25
2023-01-25T06:43:27.855Z,11.25
2023-01-25T06:45:58.535Z,10.82
2023-01-25T06:48:26.151Z,11.95
2023-01-25T06:51:00.355Z,13.00
2023-01-25T06:53:28.556Z,12.55
2023-01-25T06:55:59.550Z,11.93
2023-01-25T06:58:27.399Z,13.32
2023-01-25T07:00:55.007Z,14.35
2023-01-25T07:03:22.271Z,14.20
2023-01-25T07:05:49.916Z,14.32
2023-01-25T07:08:18.316Z,15.63
2023-01-25T07:10:45.552Z,14.85
2023-01-25T07:13:12.826Z,14.60
2023-01-25T07:15:40.009Z,16.33
2023-01-25T07:18:15.842Z,15.52
2023-01-25T07:20:43.781Z,15.60
2023-01-25T07:23:10.952Z,15.05
2023-01-25T07:25:38.123Z,16.30
2023-01-25T07:28:05.388Z,15.10
2023-01-25T07:30:32.544Z,15.90
2023-01-25T07:33:00.085Z,16.88
2023-01-25T07:35:27.302Z,16.88
2023-01-25T07:37:56.032Z,15.13
2023-01-25T07:40:25.259Z,16.23
2023-01-25T07:42:53.099Z,15.80
2023-01-25T07:45:20.510Z,15.73
2023-01-25T07:47:47.963Z,15.48
2023-01-25T07:50:15.417Z,15.48
2023-01-25T07:52:42.606Z,16.02
2023-01-25T07:55:10.271Z,15.55
2023-01-25T07:57:37.668Z,17.40
2023-01-25T08:00:07.152Z,15.45
2023-01-25T08:02:34.343Z,16.60
2023-01-25T08:05:01.573Z,14.93
2023-01-25T08:07:29.735Z,16.25
2023-01-25T08:09:56.899Z,14.70
2023-01-25T08:12:25.758Z,14.10
2023-01-25T08:14:52.975Z,15.90
2023-01-25T08:17:20.216Z,13.80
2023-01-25T08:19:47.412Z,13.30
2023-01-25T08:22:14.617Z,14.63
2023-01-25T08:24:41.910Z,14.43
2023-01-25T08:27:09.111Z,14.68
2023-01-25T08:29:36.352Z,14.38
2023-01-25T08:32:06.134Z,14.38
2023-01-25T08:34:33.429Z,14.80
2023-01-25T08:37:00.669Z,14.82
2023-01-25T08:39:27.931Z,15.57
2023-01-25T08:41:55.344Z,15.02
2023-01-25T08:44:24.125Z,14.88
2023-01-25T08:46:51.312Z,14.77
2023-01-25T08:49:18.801Z,15.27
2023-01-25T08:51:47.305Z,15.45
2023-01-25T08:54:14.629Z,16.83
2023-01-25T08:56:42.431Z,15.38
2023-01-25T08:59:12.886Z,16.02
2023-01-25T09:01:40.391Z,15.55
2023-01-25T09:04:07.589Z,15.50
2023-01-25T09:06:34.814Z,15.77
2023-01-25T09:09:02.152Z,16.63
2023-01-25T09:11:29.298Z,35.83
2023-01-25T09:13:56.523Z,16.73
2023-01-25T09:16:30.925Z,14.40
2023-01-25T09:18:58.964Z,14.38
2023-01-25T09:21:26.465Z,14.93
2023-01-25T09:24:09.288Z,15.18
2023-01-25T09:26:40.877Z,14.27
2023-01-25T09:29:10.885Z,14.02
2023-01-25T09:31:45.094Z,13.63
2023-01-25T09:34:13.433Z,14.35
2023-01-25T09:36:40.661Z,12.90
2023-01-25T09:39:07.964Z,13.05
2023-01-25T09:41:35.415Z,13.57
2023-01-25T09:44:15.613Z,14.55
2023-01-25T09:46:45.199Z,14.95
2023-01-25T09:49:22.536Z,13.27
2023-01-25T09:51:54.528Z,14.43
2023-01-25T09:54:22.228Z,15.50
2023-01-25T09:56:50.234Z,14.82
2023-01-25T09:59:20.724Z,13.65
2023-01-25T10:01:56.816Z,15.55
2023-01-25T10:04:26.346Z,14.65
2023-01-25T10:07:00.889Z,16.25
2023-01-25T10:09:34.650Z,15.27
2023-01-25T10:12:12.857Z,14.25
2023-01-25T10:14:40.034Z,13.82
2023-01-25T10:17:10.226Z,15.00
2023-01-25T10:19:49.402Z,15.10
2023-01-25T10:22:16.732Z,13.98
2023-01-25T10:24:54.433Z,12.95
2023-01-25T10:27:26.370Z,13.43
2023-01-25T10:29:57.078Z,13.60
2023-01-25T10:32:35.857Z,12.75
2023-01-25T10:35:29.191Z,12.88
2023-01-25T10:38:03.930Z,12.82
2023-01-25T10:40:32.836Z,12.90
2023-01-25T10:43:13.959Z,13.57
2023-01-25T10:45:43.163Z,13.75
2023-01-25T10:48:14.694Z,13.15
2023-01-25T10:50:42.174Z,13.65
2023-01-25T10:53:39.593Z,13.98
2023-01-25T10:56:09.971Z,13.27
2023-01-25T10:58:38.588Z,13.20
2023-01-25T11:01:07.117Z,13.60
2023-01-25T11:03:35.585Z,14.10
2023-01-25T11:06:02.860Z,14.25
2023-01-25T11:08:40.212Z,13.73
2023-01-25T11:11:33.791Z,14.15
2023-01-25T11:14:01.200Z,13.18
2023-01-25T11:16:36.069Z,13.77
2023-01-25T11:19:04.032Z,13.65
2023-01-25T11:21:33.011Z,14.68
2023-01-25T11:24:01.154Z,12.20
2023-01-25T11:26:28.689Z,12.55
2023-01-25T11:29:12.021Z,13.68
2023-01-25T11:31:41.937Z,10.02
2023-01-25T11:34:11.633Z,11.05
2023-01-25T11:36:57.958Z,10.77
2023-01-25T11:39:28.194Z,10.75
2023-01-25T11:41:58.121Z,10.90
2023-01-25T11:44:51.618Z,12.05
2023-01-25T11:47:23.466Z,11.63
2023-01-25T11:49:53.722Z,14.75
2023-01-25T11:52:32.580Z,14.98
2023-01-25T11:54:59.715Z,13.73
2023-01-25T11:57:47.232Z,14.30
2023-01-25T12:00:36.211Z,14.13
2023-01-25T12:03:22.214Z,15.50
2023-01-25T12:05:49.435Z,14.57
2023-01-25T12:08:24.042Z,14.30
2023-01-25T12:10:51.166Z,14.23
2023-01-25T12:13:33.917Z,13.98
2023-01-25T12:16:03.896Z,13.50
2023-01-25T12:18:37.639Z,13.52
2023-01-25T12:21:26.450Z,14.20
2023-01-25T12:26:29.654Z,12.63
2023-01-25T12:29:06.611Z,13.93
2023-01-25T12:31:41.491Z,14.43
2023-01-25T12:34:24.000Z,14.57
2023-01-25T12:36:51.253Z,13.32
2023-01-25T12:39:24.500Z,11.77
2023-01-25T12:41:52.013Z,12.50
2023-01-25T12:44:28.679Z,12.40
2023-01-25T12:47:03.109Z,13.05
2023-01-25T12:49:43.627Z,13.25
2023-01-25T12:52:21.465Z,13.32
2023-01-25T12:54:49.148Z,14.23
2023-01-25T12:57:16.546Z,16.35
2023-01-25T12:59:56.039Z,14.48
2023-01-25T13:02:41.958Z,14.63
2023-01-25T13:05:14.897Z,15.65
2023-01-25T13:07:54.530Z,15.90
2023-01-25T13:10:27.090Z,14.18
2023-01-25T13:15:42.188Z,12.43
2023-01-25T13:18:28.344Z,13.85
2023-01-25T13:20:59.883Z,12.45
2023-01-25T13:23:34.902Z,13.98
2023-01-25T13:26:20.793Z,12.63
2023-01-25T13:28:49.202Z,13.35
2023-01-25T13:31:50.610Z,13.63
2023-01-25T13:34:40.151Z,13.40
2023-01-25T13:37:23.009Z,12.68
2023-01-25T13:42:20.041Z,12.30
2023-01-25T13:44:52.100Z,12.48
2023-01-25T13:47:45.570Z,14.30
2023-01-25T13:50:18.752Z,12.45
2023-01-25T13:52:59.404Z,14.48
2023-01-25T13:55:26.931Z,16.38
2023-01-25T13:57:54.672Z,16.50
2023-01-25T14:00:22.170Z,14.90
2023-01-25T14:02:54.184Z,14.98
2023-01-25T14:05:22.847Z,16.25
2023-01-25T14:07:50.954Z,15.50
2023-01-25T14:10:24.736Z,14.95
2023-01-25T14:12:52.761Z,16.85
2023-01-25T14:15:24.534Z,16.05
2023-01-25T14:18:10.526Z,14.48
2023-01-25T14:20:37.680Z,17.90
2023-01-25T14:23:05.497Z,16.40
2023-01-25T14:25:33.862Z,15.75
2023-01-25T14:28:02.278Z,14.45
2023-01-25T14:30:31.181Z,13.32
2023-01-25T14:32:59.930Z,11.90
2023-01-25T14:35:56.351Z,10.82
2023-01-25T14:38:34.156Z,12.50
2023-01-25T14:41:04.379Z,12.43
2023-01-25T14:43:31.998Z,11.75
2023-01-25T14:45:59.212Z,11.93
2023-01-25T14:48:35.363Z,13.25
2023-01-25T14:51:22.814Z,11.63
2023-01-25T14:53:51.926Z,10.15
2023-01-25T14:56:25.329Z,10.25
2023-01-25T14:58:59.533Z,10.32
2023-01-25T15:01:32.594Z,9.57
2023-01-25T15:03:59.838Z,10.52
2023-01-25T15:06:27.764Z,8.93
2023-01-25T15:08:55.017Z,8.95
2023-01-25T15:11:37.759Z,11.63
2023-01-25T15:14:13.429Z,10.43
2023-01-25T15:16:42.271Z,10.32
2023-01-25T15:19:22.488Z,10.45
2023-01-25T15:21:49.852Z,10.15
2023-01-25T15:24:17.373Z,9.98
2023-01-25T15:26:49.573Z,10.38
2023-01-25T15:29:21.379Z,9.65
2023-01-25T15:31:49.483Z,9.57
2023-01-25T15:34:19.565Z,9.45
2023-01-25T15:36:46.772Z,8.68
2023-01-25T15:39:17.920Z,8.43
2023-01-25T15:41:45.378Z,9.45
2023-01-25T15:44:13.064Z,9.55
2023-01-25T15:46:42.768Z,11.55
2023-01-25T15:49:14.495Z,11.98
2023-01-25T15:51:41.799Z,11.10
2023-01-25T15:54:09.339Z,11.55
2023-01-25T15:56:37.761Z,12.98
2023-01-25T15:59:09.623Z,11.82
2023-01-25T16:01:36.921Z,11.23
2023-01-25T16:04:04.291Z,12.23
2023-01-25T16:06:37.802Z,11.43
2023-01-25T16:09:13.808Z,11.25
2023-01-25T16:11:41.056Z,11.13
2023-01-25T16:14:08.255Z,10.18
2023-01-25T16:16:38.202Z,11.57
2023-01-25T16:19:05.406Z,12.80
2023-01-25T16:21:32.676Z,12.48
2023-01-25T16:23:59.886Z,12.23
2023-01-25T16:26:28.791Z,14.02
2023-01-25T16:28:56.007Z,12.90
2023-01-25T16:31:32.243Z,12.48
2023-01-25T16:34:00.742Z,37.17
2023-01-25T16:36:28.012Z,51.05
2023-01-25T16:38:55.190Z,22.17
2023-01-25T16:41:22.458Z,15.40
2023-01-25T16:43:49.963Z,13.27
2023-01-25T16:46:18.444Z,13.02
2023-01-25T16:48:46.867Z,11.82
2023-01-25T16:51:22.131Z,12.38
2023-01-25T16:53:50.004Z,14.07
2023-01-25T16:56:21.121Z,10.63
2023-01-25T16:58:48.786Z,11.77
2023-01-25T17:01:16.884Z,12.10
2023-01-25T17:03:44.591Z,12.90
2023-01-25T17:06:22.210Z,12.43
2023-01-25T17:08:50.131Z,11.93
2023-01-25T17:11:21.983Z,11.43
2023-01-25T17:13:50.345Z,10.32
2023-01-25T17:16:18.077Z,13.13
2023-01-25T17:18:45.612Z,11.75
2023-01-25T17:21:14.614Z,12.90
2023-01-25T17:23:43.674Z,10.45
2023-01-25T17:26:12.681Z,12.25
2023-01-25T17:28:40.131Z,12.80
2023-01-25T17:31:14.168Z,10.60
2023-01-25T17:33:41.489Z,10.70
2023-01-25T17:36:09.311Z,11.35
2023-01-25T17:38:36.497Z,12.07
2023-01-25T17:41:04.644Z,13.38
2023-01-25T17:43:34.366Z,14.35
2023-01-25T17:46:10.696Z,14.38
2023-01-25T17:48:37.860Z,11.57
2023-01-25T17:51:05.183Z,10.27
2023-01-25T17:53:32.473Z,10.75
2023-01-25T17:56:03.481Z,10.68
2023-01-25T17:58:31.701Z,11.13
2023-01-25T18:01:12.490Z,10.48
2023-01-25T18:03:40.784Z,8.73
2023-01-25T18:06:09.502Z,8.82
2023-01-25T18:08:40.728Z,8.45
2023-01-25T18:11:10.172Z,9.18
2023-01-25T18:13:44.367Z,8.50
2023-01-25T18:16:13.291Z,9.57
2023-01-25T18:18:41.640Z,9.93
2023-01-25T18:21:13.000Z,10.57
2023-01-25T18:23:40.913Z,10.70
2023-01-25T18:26:11.578Z,10.75
2023-01-25T18:28:38.822Z,10.98
2023-01-25T18:31:06.714Z,12.05
2023-01-25T18:33:34.117Z,12.23
2023-01-25T18:36:03.917Z,11.13
2023-01-25T18:38:32.907Z,10.45
2023-01-25T18:41:00.384Z,10.25
2023-01-25T18:43:28.196Z,9.40
2023-01-25T18:45:55.990Z,8.07
2023-01-25T18:48:30.144Z,10.10
2023-01-25T18:51:01.492Z,8.75
2023-01-25T18:53:31.682Z,8.18
2023-01-25T18:56:07.252Z,8.70
2023-01-25T18:58:35.300Z,8.65
2023-01-25T19:01:03.788Z,9.20
2023-01-25T19:03:31.223Z,7.07
2023-01-25T19:05:58.983Z,8.38
2023-01-25T19:08:26.632Z,9.65
2023-01-25T19:11:00.588Z,9.07
2023-01-25T19:13:29.659Z,8.80
2023-01-25T19:16:05.486Z,9.80
2023-01-25T19:18:36.872Z,8.30
2023-01-25T19:21:07.653Z,9.23
2023-01-25T19:23:36.141Z,9.52
2023-01-25T19:26:03.463Z,10.20
2023-01-25T19:28:31.140Z,11.07
2023-01-25T19:30:58.483Z,11.02
2023-01-25T19:33:27.453Z,11.27
2023-01-25T19:36:00.106Z,11.40
2023-01-25T19:40:54.719Z,12.48
2023-01-25T19:43:22.201Z,9.95
2023-01-25T19:45:50.386Z,12.80
2023-01-25T19:48:17.821Z,11.95
2023-01-25T19:50:45.170Z,11.57
2023-01-25T19:53:12.378Z,11.15
2023-01-25T19:55:39.790Z,11.85
2023-01-25T19:58:08.718Z,10.48
2023-01-25T20:00:35.923Z,12.75
2023-01-25T20:03:15.693Z,10.45
2023-01-25T20:05:43.916Z,10.70
2023-01-25T20:08:11.305Z,12.90
2023-01-25T20:10:38.723Z,11.07
2023-01-25T20:13:08.661Z,12.88
2023-01-25T20:15:36.085Z,12.52
2023-01-25T20:18:03.490Z,12.88
2023-01-25T20:20:30.744Z,13.70
2023-01-25T20:22:58.030Z,13.10
2023-01-25T20:25:25.570Z,12.65
2023-01-25T20:27:52.743Z,12.73
2023-01-25T20:30:20.199Z,9.60
2023-01-25T20:32:47.586Z,12.15
2023-01-25T20:35:14.882Z,12.35
2023-01-25T20:37:42.193Z,11.52
2023-01-25T20:40:09.790Z,11.80
2023-01-25T20:42:37.134Z,13.20
2023-01-25T20:45:04.534Z,12.25
2023-01-25T20:47:31.812Z,13.27
2023-01-25T20:49:59.070Z,13.85
2023-01-25T20:52:26.323Z,11.82
2023-01-25T20:54:53.947Z,11.40
2023-01-25T20:57:21.343Z,12.57
2023-01-25T20:59:48.572Z,11.45
2023-01-25T21:02:15.912Z,13.18
2023-01-25T21:04:43.387Z,12.65
2023-01-25T21:07:10.821Z,13.80
2023-01-25T21:09:38.055Z,12.10
2023-01-25T21:12:05.408Z,13.02
2023-01-25T21:14:32.618Z,13.48
2023-01-25T21:16:59.839Z,13.32
2023-01-25T21:19:27.631Z,13.30
2023-01-25T21:21:54.774Z,14.75
2023-01-25T21:24:22.019Z,12.27
2023-01-25T21:26:49.238Z,14.10
2023-01-25T21:29:16.445Z,9.85
2023-01-25T21:31:43.895Z,13.00
2023-01-25T21:34:11.149Z,12.45
2023-01-25T21:36:38.332Z,13.38
2023-01-25T21:39:05.799Z,11.18
2023-01-25T21:41:33.691Z,12.25
2023-01-25T21:44:20.285Z,11.95
2023-01-25T21:47:12.402Z,12.30
2023-01-25T21:49:53.593Z,13.02
2023-01-25T21:52:20.919Z,12.57
2023-01-25T21:54:48.358Z,13.88
2023-01-25T21:57:15.552Z,11.55
2023-01-25T21:59:42.841Z,12.60
2023-01-25T22:02:13.901Z,13.02
2023-01-25T22:04:42.152Z,13.70
2023-01-25T22:07:09.814Z,13.65
2023-01-25T22:09:37.311Z,12.43
2023-01-25T22:12:04.638Z,12.75
2023-01-25T22:14:31.837Z,14.45
2023-01-25T22:16:59.212Z,13.07
2023-01-25T22:19:26.703Z,13.07
2023-01-25T22:21:53.877Z,15.70
2023-01-25T22:24:21.260Z,14.88
2023-01-25T22:26:59.452Z,16.83
2023-01-25T22:29:26.694Z,15.57
2023-01-25T22:31:53.952Z,13.27
2023-01-25T22:34:21.095Z,13.48
2023-01-25T22:36:49.453Z,13.65
2023-01-25T22:39:16.649Z,12.88
2023-01-25T22:41:43.880Z,13.15
2023-01-25T22:44:11.617Z,11.88
2023-01-25T22:46:38.850Z,12.23
2023-01-25T22:49:06.076Z,12.55
2023-01-25T22:51:33.336Z,13.77
2023-01-25T22:54:01.007Z,12.75
2023-01-25T22:56:29.575Z,13.07
2023-01-25T22:58:56.845Z,13.07
2023-01-25T23:01:25.359Z,13.95
2023-01-25T23:03:53.114Z,13.23
2023-01-25T23:06:24.660Z,13.60
2023-01-25T23:08:54.971Z,13.00
2023-01-25T23:11:23.853Z,13.60
2023-01-25T23:14:11.658Z,13.77
2023-01-25T23:16:38.830Z,13.57
2023-01-25T23:19:06.264Z,13.80
2023-01-25T23:21:35.714Z,13.65
2023-01-25T23:24:03.527Z,13.15
2023-01-25T23:26:39.027Z,13.65
2023-01-25T23:29:07.485Z,12.70
2023-01-25T23:31:34.808Z,12.80
2023-01-25T23:34:03.331Z,13.30
2023-01-25T23:36:32.191Z,13.00
2023-01-25T23:39:00.041Z,14.20
2023-01-25T23:41:28.670Z,13.68
2023-01-25T23:43:56.218Z,13.43
2023-01-25T23:46:24.179Z,14.35
2023-01-25T23:48:51.391Z,13.55
2023-01-25T23:51:18.865Z,14.10
2023-01-25T23:53:46.128Z,13.80
2023-01-25T23:56:14.753Z,13.45
2023-01-25T23:58:41.955Z,12.65
